Aviation Digital Data Service (ADDS)

Output produced by METARs form (0335 UTC 26 October 2014)
found at http://aviationweather.gov/adds/metars/
 
KPHX 260250Z 2603/2624 27005KT P6SM FEW120 SCT250 
     FM260600 10006KT P6SM SCT250 
     FM262100 25006KT P6SM SCT120 SCT250